createdAt,value
2023-02-06T00:01:29.254Z,99310.09
2023-02-06T00:03:58.122Z,99310.81
2023-02-06T00:06:26.409Z,99311.38
2023-02-06T00:08:57.412Z,99309.84
2023-02-06T00:11:25.832Z,99314.97
2023-02-06T00:13:55.557Z,99309.69
2023-02-06T00:16:25.194Z,99307.81
2023-02-06T00:18:55.473Z,99311.13
2023-02-06T00:21:26.024Z,99311.09
2023-02-06T00:23:55.210Z,99312.50
2023-02-06T00:26:24.925Z,99312.28
2023-02-06T00:28:55.451Z,99315.09
2023-02-06T00:31:23.956Z,99316.84
2023-02-06T00:33:52.345Z,99318.97
2023-02-06T00:36:20.881Z,99334.31
2023-02-06T00:38:49.278Z,99334.84
2023-02-06T00:41:17.729Z,99333.81
2023-02-06T00:43:46.426Z,99333.28
2023-02-06T00:46:16.206Z,99328.50
2023-02-06T00:48:46.434Z,99344.16
2023-02-06T00:51:14.812Z,99346.31
2023-02-06T00:53:43.127Z,99341.47
2023-02-06T00:56:13.866Z,99355.75
2023-02-06T00:58:42.193Z,99358.72
2023-02-06T01:01:12.854Z,99356.69
2023-02-06T01:03:42.669Z,99357.44
2023-02-06T01:06:11.072Z,99360.63
2023-02-06T01:08:39.383Z,99361.78
2023-02-06T01:11:11.812Z,99351.47
2023-02-06T01:13:40.190Z,99363.84
2023-02-06T01:16:10.414Z,99370.63
2023-02-06T01:18:39.253Z,99369.28
2023-02-06T01:21:11.344Z,99367.09
2023-02-06T01:23:41.495Z,99359.75
2023-02-06T01:26:11.098Z,99361.66
2023-02-06T01:28:39.881Z,99359.47
2023-02-06T01:31:12.584Z,99364.56
2023-02-06T01:33:41.316Z,99365.13
2023-02-06T01:36:14.738Z,99375.34
2023-02-06T01:38:43.653Z,99369.94
2023-02-06T01:41:13.298Z,99366.13
2023-02-06T01:43:43.639Z,99374.47
2023-02-06T01:46:12.665Z,99365.72
2023-02-06T01:48:43.715Z,99363.66
2023-02-06T01:51:16.874Z,99362.94
2023-02-06T01:54:02.392Z,99361.81
2023-02-06T01:56:34.512Z,99367.69
2023-02-06T01:59:05.471Z,99360.59
2023-02-06T02:01:34.769Z,99366.50
2023-02-06T02:04:06.433Z,99364.41
2023-02-06T02:06:36.253Z,99361.06
2023-02-06T02:09:09.420Z,99365.00
2023-02-06T02:11:39.542Z,99360.31
2023-02-06T02:14:10.126Z,99366.41
2023-02-06T02:16:48.182Z,99374.81
2023-02-06T02:20:12.582Z,99370.63
2023-02-06T02:23:06.325Z,99369.19
2023-02-06T02:25:55.196Z,99362.91
2023-02-06T02:28:48.884Z,99362.75
2023-02-06T02:31:35.831Z,99368.28
2023-02-06T02:34:42.580Z,99354.25
2023-02-06T02:37:19.280Z,99352.31
2023-02-06T02:39:49.794Z,99350.50
2023-02-06T02:42:22.086Z,99350.63
2023-02-06T02:44:54.252Z,99359.81
2023-02-06T02:47:27.480Z,99360.00
2023-02-06T02:49:57.852Z,99356.41
2023-02-06T02:52:27.924Z,99355.38
2023-02-06T02:54:56.326Z,99361.13
2023-02-06T02:57:28.605Z,99358.81
2023-02-06T02:59:59.885Z,99354.06
2023-02-06T03:02:34.945Z,99359.00
2023-02-06T03:05:05.859Z,99364.31
2023-02-06T03:07:41.953Z,99371.25
2023-02-06T03:10:15.879Z,99376.88
2023-02-06T03:12:47.487Z,99376.88
2023-02-06T03:15:25.844Z,99374.38
2023-02-06T03:17:57.183Z,99368.91
2023-02-06T03:20:26.149Z,99369.34
2023-02-06T03:22:56.663Z,99372.31
2023-02-06T03:25:29.540Z,99379.53
2023-02-06T03:27:59.341Z,99366.97
2023-02-06T03:30:29.861Z,99374.06
2023-02-06T03:33:01.531Z,99379.53
2023-02-06T03:35:33.670Z,99377.00
2023-02-06T03:38:03.976Z,99375.50
2023-02-06T03:40:32.415Z,99379.47
2023-02-06T03:43:03.913Z,99376.81
2023-02-06T03:45:34.479Z,99377.16
2023-02-06T03:48:07.686Z,99373.00
2023-02-06T03:50:36.381Z,99388.41
2023-02-06T03:53:06.634Z,99375.25
2023-02-06T03:55:36.026Z,99384.88
2023-02-06T03:58:07.506Z,99384.28
2023-02-06T04:00:36.486Z,99384.69
2023-02-06T04:03:05.978Z,99389.44
2023-02-06T04:05:34.588Z,99391.63
2023-02-06T04:08:03.156Z,99383.50
2023-02-06T04:10:32.929Z,99379.69
2023-02-06T04:13:01.235Z,99389.13
2023-02-06T04:15:31.308Z,99383.69
2023-02-06T04:18:01.738Z,99387.38
2023-02-06T04:20:30.730Z,99389.72
2023-02-06T04:22:59.623Z,99388.06
2023-02-06T04:25:27.936Z,99388.97
2023-02-06T04:27:57.804Z,99384.47
2023-02-06T04:30:26.476Z,99390.41
2023-02-06T04:32:54.859Z,99395.19
2023-02-06T04:35:23.236Z,99388.81
2023-02-06T04:37:52.356Z,99382.75
2023-02-06T04:40:21.565Z,99380.25
2023-02-06T04:42:49.923Z,99381.09
2023-02-06T04:45:19.703Z,99380.81
2023-02-06T04:47:49.542Z,99378.13
2023-02-06T04:50:18.300Z,99372.47
2023-02-06T04:52:46.610Z,99370.28
2023-02-06T04:55:14.905Z,99377.13
2023-02-06T04:57:43.549Z,99374.31
2023-02-06T05:00:13.573Z,99367.97
2023-02-06T05:02:43.752Z,99372.13
2023-02-06T05:05:12.021Z,99363.72
2023-02-06T05:07:40.324Z,99365.78
2023-02-06T05:10:10.129Z,99370.66
2023-02-06T05:12:38.812Z,99380.09
2023-02-06T05:15:07.955Z,99384.25
2023-02-06T05:17:36.315Z,99389.13
2023-02-06T05:20:07.310Z,99388.25
2023-02-06T05:22:35.687Z,99386.91
2023-02-06T05:25:04.304Z,99375.53
2023-02-06T05:27:33.478Z,99389.59
2023-02-06T05:30:01.904Z,99392.09
2023-02-06T05:32:30.320Z,99395.03
2023-02-06T05:34:58.585Z,99394.91
2023-02-06T05:37:28.475Z,99390.91
2023-02-06T05:39:58.539Z,99401.41
2023-02-06T05:42:27.949Z,99400.78
2023-02-06T05:44:56.208Z,99400.22
2023-02-06T05:47:24.668Z,99393.09
2023-02-06T05:49:54.459Z,99380.09
2023-02-06T05:52:22.760Z,99388.69
2023-02-06T05:54:52.560Z,99383.97
2023-02-06T05:57:21.420Z,99387.78
2023-02-06T05:59:49.658Z,99377.44
2023-02-06T06:02:18.261Z,99374.94
2023-02-06T06:04:46.765Z,99372.72
2023-02-06T06:07:15.290Z,99381.00
2023-02-06T06:09:43.648Z,99362.84
2023-02-06T06:12:13.470Z,99373.88
2023-02-06T06:14:43.159Z,99376.41
2023-02-06T06:17:11.490Z,99366.94
2023-02-06T06:19:39.896Z,99366.22
2023-02-06T06:22:08.321Z,99372.13
2023-02-06T06:24:37.557Z,99375.41
2023-02-06T06:27:08.473Z,99381.91
2023-02-06T06:29:38.378Z,99381.44
2023-02-06T06:32:07.079Z,99374.66
2023-02-06T06:34:35.743Z,99381.59
2023-02-06T06:37:04.219Z,99377.44
2023-02-06T06:39:32.492Z,99386.31
2023-02-06T06:42:00.862Z,99393.25
2023-02-06T06:44:29.293Z,99394.28
2023-02-06T06:46:59.126Z,99400.50
2023-02-06T06:49:29.016Z,99396.03
2023-02-06T06:51:57.393Z,99399.75
2023-02-06T06:54:25.674Z,99399.53
2023-02-06T06:56:54.722Z,99402.03
2023-02-06T06:59:23.077Z,99394.81
2023-02-06T07:01:54.810Z,99392.00
2023-02-06T07:04:28.556Z,99395.25
2023-02-06T07:06:56.854Z,99387.28
2023-02-06T07:09:25.418Z,99393.50
2023-02-06T07:11:53.730Z,99392.91
2023-02-06T07:14:22.274Z,99390.50
2023-02-06T07:16:50.766Z,99383.84
2023-02-06T07:19:19.156Z,99384.28
2023-02-06T07:21:48.828Z,99382.66
2023-02-06T07:24:18.360Z,99385.59
2023-02-06T07:26:46.760Z,99384.69
2023-02-06T07:29:15.434Z,99388.03
2023-02-06T07:31:43.833Z,99387.88
2023-02-06T07:34:13.522Z,99384.81
2023-02-06T07:36:41.842Z,99385.34
2023-02-06T07:39:11.830Z,99378.94
2023-02-06T07:41:40.162Z,99378.72
2023-02-06T07:44:09.575Z,99371.06
2023-02-06T07:46:38.671Z,99376.97
2023-02-06T07:49:07.353Z,99376.28
2023-02-06T07:51:35.833Z,99383.13
2023-02-06T07:54:04.416Z,99379.16
2023-02-06T07:59:36.786Z,99383.22
2023-02-06T08:02:06.472Z,99381.81
2023-02-06T08:04:37.610Z,99377.97
2023-02-06T08:07:07.166Z,99387.63
2023-02-06T08:09:35.903Z,99390.97
2023-02-06T08:12:04.326Z,99380.69
2023-02-06T08:14:32.804Z,99388.28
2023-02-06T08:17:02.623Z,99393.28
2023-02-06T08:19:31.013Z,99388.66
2023-02-06T08:21:59.588Z,99381.53
2023-02-06T08:24:28.291Z,99378.16
2023-02-06T08:26:56.767Z,99382.66
2023-02-06T08:29:25.596Z,99378.41
2023-02-06T08:31:56.854Z,99381.84
2023-02-06T08:34:26.750Z,99371.84
2023-02-06T08:46:28.502Z,99382.88
2023-02-06T08:48:58.152Z,99370.13
2023-02-06T08:51:28.982Z,99371.88
2023-02-06T08:53:58.559Z,99371.94
2023-02-06T10:10:52.362Z,99360.31
2023-02-06T10:19:44.225Z,99341.03
2023-02-06T10:22:16.427Z,99343.84
2023-02-06T10:24:49.351Z,99337.00
2023-02-06T10:27:19.401Z,99333.03
2023-02-06T10:29:48.512Z,99328.41
2023-02-06T10:32:31.867Z,99313.06
2023-02-06T10:35:14.922Z,99315.91
2023-02-06T10:38:07.707Z,99316.47
2023-02-06T10:40:41.426Z,99310.72
2023-02-06T10:43:18.795Z,99293.16
2023-02-06T10:45:51.884Z,99292.38
2023-02-06T10:48:31.643Z,99284.06
2023-02-06T10:51:09.086Z,99290.22
2023-02-06T10:53:40.063Z,99280.44
2023-02-06T10:56:11.030Z,99273.09
2023-02-06T10:58:42.979Z,99274.53
2023-02-06T11:01:24.973Z,99275.66
2023-02-06T11:03:57.689Z,99277.56
2023-02-06T11:06:28.370Z,99271.19
2023-02-06T11:08:56.763Z,99261.03
2023-02-06T11:11:26.987Z,99258.00
2023-02-06T11:13:59.852Z,99257.69
2023-02-06T11:16:31.121Z,99257.00
2023-02-06T11:19:02.245Z,99252.72
2023-02-06T11:21:51.885Z,99249.06
2023-02-06T11:24:22.515Z,99249.56
2023-02-06T11:26:54.720Z,99245.16
2023-02-06T11:29:26.986Z,99246.22
2023-02-06T11:31:58.699Z,99244.91
2023-02-06T11:34:32.682Z,99233.59
2023-02-06T11:37:02.846Z,99232.69
2023-02-06T11:39:33.854Z,99229.38
2023-02-06T11:42:04.705Z,99218.84
2023-02-06T11:44:39.344Z,99219.94
2023-02-06T11:47:38.331Z,99208.78
2023-02-06T11:50:25.865Z,99207.72
2023-02-06T11:53:00.085Z,99206.84
2023-02-06T11:55:30.105Z,99205.97
2023-02-06T11:58:09.349Z,99198.97
2023-02-06T12:00:40.524Z,99199.03
2023-02-06T12:03:30.929Z,99197.50
2023-02-06T12:06:03.204Z,99192.53
2023-02-06T12:08:41.083Z,99203.88
2023-02-06T12:11:15.911Z,99196.31
2023-02-06T12:13:49.156Z,99201.25
2023-02-06T12:16:19.231Z,99191.41
2023-02-06T12:18:51.128Z,99191.50
2023-02-06T12:21:27.051Z,99183.16
2023-02-06T12:23:58.366Z,99184.84
2023-02-06T12:26:29.765Z,99181.06
2023-02-06T12:29:01.637Z,99192.59
2023-02-06T12:31:38.008Z,99191.16
2023-02-06T12:34:13.729Z,99190.88
2023-02-06T12:36:53.495Z,99187.16
2023-02-06T12:39:23.513Z,99192.75
2023-02-06T12:42:09.581Z,99188.16
2023-02-06T12:44:42.393Z,99179.91
2023-02-06T12:47:15.916Z,99170.53
2023-02-06T12:49:50.796Z,99174.09
2023-02-06T12:52:23.970Z,99180.19
2023-02-06T12:54:55.295Z,99177.34
2023-02-06T12:57:25.865Z,99171.31
2023-02-06T13:00:23.192Z,99169.09
2023-02-06T13:03:24.946Z,99165.69
2023-02-06T13:05:56.680Z,99161.97
2023-02-06T13:08:28.569Z,99168.22
2023-02-06T13:11:02.661Z,99166.50
2023-02-06T13:13:33.035Z,99163.25
2023-02-06T13:16:02.780Z,99165.66
2023-02-06T13:19:04.453Z,99170.94
2023-02-06T13:21:36.871Z,99161.84
2023-02-06T13:24:20.708Z,99164.47
2023-02-06T13:27:11.968Z,99156.19
2023-02-06T13:29:41.769Z,99164.88
2023-02-06T13:32:53.448Z,99163.75
2023-02-06T13:35:25.725Z,99164.72
2023-02-06T13:38:28.263Z,99162.94
2023-02-06T13:41:19.332Z,99162.31
2023-02-06T13:43:50.811Z,99161.16
2023-02-06T13:46:22.131Z,99163.41
2023-02-06T13:49:13.825Z,99166.03
2023-02-06T13:51:50.410Z,99157.84
2023-02-06T13:54:51.679Z,99166.47
2023-02-06T13:57:50.640Z,99164.00
2023-02-06T14:00:21.594Z,99169.16
2023-02-06T14:02:52.920Z,99167.22
2023-02-06T14:05:22.568Z,99168.09
2023-02-06T14:08:09.829Z,99159.34
2023-02-06T14:11:06.406Z,99167.75
2023-02-06T14:13:45.998Z,99162.53
2023-02-06T14:16:23.361Z,99158.69
2023-02-06T14:18:56.630Z,99163.53
2023-02-06T14:21:35.864Z,99170.03
2023-02-06T14:24:32.722Z,99173.28
2023-02-06T14:27:15.879Z,99171.28
2023-02-06T14:29:49.507Z,99175.72
2023-02-06T14:32:36.678Z,99172.84
2023-02-06T14:35:36.050Z,99171.69
2023-02-06T14:38:22.907Z,99170.28
2023-02-06T14:40:52.901Z,99160.47
2023-02-06T14:43:25.515Z,99153.97
2023-02-06T14:46:06.266Z,99152.13
2023-02-06T14:48:46.218Z,99161.88
2023-02-06T14:51:23.776Z,99158.38
2023-02-06T14:53:54.113Z,99160.88
2023-02-06T14:56:28.612Z,99159.31
2023-02-06T14:59:09.544Z,99161.41
2023-02-06T15:01:37.913Z,99163.19
2023-02-06T15:04:12.325Z,99165.50
2023-02-06T15:06:42.569Z,99162.47
2023-02-06T15:09:24.354Z,99170.75
2023-02-06T15:11:53.262Z,99171.81
2023-02-06T15:14:25.143Z,99180.19
2023-02-06T15:16:53.565Z,99179.00
2023-02-06T15:19:25.622Z,99179.63
2023-02-06T15:21:58.280Z,99181.84
2023-02-06T15:24:46.116Z,99182.09
2023-02-06T15:27:20.636Z,99184.19
2023-02-06T15:29:51.494Z,99189.47
2023-02-06T15:32:28.012Z,99190.22
2023-02-06T15:34:56.486Z,99196.97
2023-02-06T15:37:27.676Z,99199.28
2023-02-06T15:39:56.497Z,99207.09
2023-02-06T15:42:25.227Z,99203.38
2023-02-06T15:44:55.088Z,99201.72
2023-02-06T15:47:23.550Z,99205.69
2023-02-06T15:49:53.310Z,99204.16
2023-02-06T16:24:16.667Z,99230.66
2023-02-06T16:39:19.310Z,99247.53
2023-02-06T16:41:50.976Z,99248.66
2023-02-06T16:44:19.560Z,99253.47
2023-02-06T16:46:48.423Z,99258.16
2023-02-06T16:49:19.484Z,99266.38
2023-02-06T16:51:51.535Z,99266.03
2023-02-06T16:54:24.533Z,99269.81
2023-02-06T16:56:53.682Z,99270.94
2023-02-06T16:59:22.523Z,99285.22
2023-02-06T17:01:51.421Z,99290.66
2023-02-06T17:04:20.871Z,99294.59
2023-02-06T17:06:50.420Z,99300.28
2023-02-06T17:09:19.626Z,99304.81
2023-02-06T17:11:49.384Z,99299.25
2023-02-06T17:14:19.009Z,99306.44
2023-02-06T17:16:47.740Z,99310.38
2023-02-06T17:19:16.105Z,99315.81
2023-02-06T17:21:44.462Z,99316.81
2023-02-06T17:24:13.437Z,99320.47
2023-02-06T17:26:42.322Z,99313.66
2023-02-06T17:29:15.116Z,99321.75
2023-02-06T17:31:44.567Z,99337.38
2023-02-06T17:34:13.389Z,99336.88
2023-02-06T17:36:43.252Z,99337.50
2023-02-06T17:39:13.490Z,99345.44
2023-02-06T17:41:43.365Z,99345.44
2023-02-06T17:44:19.069Z,99347.56
2023-02-06T17:46:49.501Z,99353.22
2023-02-06T17:49:19.699Z,99356.25
2023-02-06T17:51:50.103Z,99362.53
2023-02-06T17:54:19.608Z,99364.16
2023-02-06T17:56:48.482Z,99360.75
2023-02-06T17:59:19.520Z,99369.19
2023-02-06T18:01:49.166Z,99364.56
2023-02-06T18:04:24.488Z,99378.47
2023-02-06T18:06:55.050Z,99378.03
2023-02-06T18:09:24.555Z,99384.94
2023-02-06T18:11:53.236Z,99379.41
2023-02-06T18:14:23.330Z,99384.53
2023-02-06T18:16:53.442Z,99377.44
2023-02-06T18:19:25.182Z,99376.91
2023-02-06T18:21:54.851Z,99379.88
2023-02-06T18:24:24.388Z,99373.22
2023-02-06T18:26:53.777Z,99374.97
2023-02-06T18:29:37.206Z,99380.47
2023-02-06T18:32:13.933Z,99375.41
2023-02-06T18:34:43.988Z,99385.56
2023-02-06T18:37:17.105Z,99390.28
2023-02-06T18:39:46.645Z,99392.25
2023-02-06T18:42:34.511Z,99392.66
2023-02-06T18:45:06.496Z,99390.38
2023-02-06T18:47:37.190Z,99397.88
2023-02-06T18:50:08.372Z,99411.91
2023-02-06T18:52:42.055Z,99407.13
2023-02-06T18:55:13.066Z,99404.34
2023-02-06T18:57:43.617Z,99411.63
2023-02-06T19:00:20.093Z,99416.94
2023-02-06T19:02:50.108Z,99417.28
2023-02-06T19:05:20.713Z,99411.34
2023-02-06T19:07:52.850Z,99409.00
2023-02-06T19:10:23.852Z,99423.91
2023-02-06T19:12:53.917Z,99423.19
2023-02-06T19:15:27.241Z,99427.91
2023-02-06T19:17:56.976Z,99426.31
2023-02-06T19:20:27.186Z,99421.31
2023-02-06T19:22:57.598Z,99428.69
2023-02-06T19:25:27.670Z,99432.16
2023-02-06T19:27:58.601Z,99434.25
2023-02-06T19:30:30.217Z,99433.44
2023-02-06T19:33:00.256Z,99430.91
2023-02-06T19:35:30.408Z,99428.13
2023-02-06T19:38:01.406Z,99431.44
2023-02-06T19:40:34.861Z,99432.53
2023-02-06T19:43:05.194Z,99421.63
2023-02-06T19:45:38.007Z,99428.59
2023-02-06T19:48:12.865Z,99431.72
2023-02-06T19:50:45.916Z,99427.19
2023-02-06T19:53:17.002Z,99435.97
2023-02-06T19:55:50.557Z,99428.56
2023-02-06T19:58:20.537Z,99431.81
2023-02-06T20:00:52.043Z,99441.00
2023-02-06T20:03:22.069Z,99442.22
2023-02-06T20:05:54.384Z,99447.75
2023-02-06T20:08:24.494Z,99442.69
2023-02-06T20:10:55.581Z,99445.41
2023-02-06T20:13:25.635Z,99449.06
2023-02-06T20:16:04.115Z,99452.72
2023-02-06T20:18:34.975Z,99459.84
2023-02-06T20:21:05.537Z,99458.34
2023-02-06T20:23:38.715Z,99457.66
2023-02-06T20:26:11.259Z,99455.28
2023-02-06T20:28:40.620Z,99464.81
2023-02-06T20:31:13.593Z,99464.09
2023-02-06T20:33:46.666Z,99466.16
2023-02-06T20:36:18.192Z,99463.31
2023-02-06T20:38:49.824Z,99470.88
2023-02-06T20:41:20.429Z,99473.13
2023-02-06T20:43:49.789Z,99474.00
2023-02-06T20:46:21.875Z,99472.34
2023-02-06T20:48:56.137Z,99475.75
2023-02-06T20:51:26.541Z,99473.16
2023-02-06T20:53:55.978Z,99481.75
2023-02-06T20:56:26.009Z,99478.78
2023-02-06T20:58:56.604Z,99486.91
2023-02-06T21:01:29.816Z,99488.25
2023-02-06T21:03:59.836Z,99485.84
2023-02-06T21:06:30.476Z,99496.22
2023-02-06T21:09:01.362Z,99487.16
2023-02-06T21:11:35.001Z,99487.56
2023-02-06T21:14:06.405Z,99495.25
2023-02-06T21:16:37.718Z,99495.69
2023-02-06T21:19:07.985Z,99499.63
2023-02-06T21:21:37.647Z,99502.31
2023-02-06T21:24:07.319Z,99499.94
2023-02-06T21:26:36.592Z,99514.16
2023-02-06T21:29:06.490Z,99512.66
2023-02-06T21:31:38.934Z,99506.59
2023-02-06T21:34:10.117Z,99502.69
2023-02-06T21:36:39.832Z,99505.38
2023-02-06T21:39:08.531Z,99517.19
2023-02-06T21:41:37.506Z,99513.94
2023-02-06T21:44:06.319Z,99514.88
2023-02-06T21:46:36.520Z,99507.81
2023-02-06T21:49:06.463Z,99512.97
2023-02-06T21:51:34.806Z,99518.03
2023-02-06T21:54:03.116Z,99508.69
2023-02-06T21:56:31.586Z,99509.41
2023-02-06T21:58:59.956Z,99523.50
2023-02-06T22:01:29.972Z,99507.75
2023-02-06T22:03:59.939Z,99504.81
2023-02-06T22:06:29.015Z,99504.09
2023-02-06T22:09:04.571Z,99509.72
2023-02-06T22:11:32.949Z,99519.19
2023-02-06T22:14:03.617Z,99523.19
2023-02-06T22:16:32.313Z,99527.63
2023-02-06T22:19:02.362Z,99522.00
2023-02-06T22:21:31.868Z,99524.09
2023-02-06T22:24:01.794Z,99521.44
2023-02-06T22:26:31.265Z,99530.28
2023-02-06T22:28:59.945Z,99533.72
2023-02-06T22:31:32.277Z,99528.09
2023-02-06T22:34:02.972Z,99530.47
2023-02-06T22:36:33.068Z,99530.00
2023-02-06T22:39:06.586Z,99541.13
2023-02-06T22:41:35.841Z,99546.16
2023-02-06T22:44:04.183Z,99547.03
2023-02-06T22:46:34.458Z,99552.59
2023-02-06T22:49:05.794Z,99560.13
2023-02-06T22:51:34.151Z,99566.34
2023-02-06T22:54:02.777Z,99568.56
2023-02-06T22:56:34.969Z,99564.00
2023-02-06T22:59:05.436Z,99569.63
2023-02-06T23:01:35.014Z,99568.72
2023-02-06T23:04:05.912Z,99569.91
2023-02-06T23:06:35.393Z,99569.94
2023-02-06T23:09:06.480Z,99577.66
2023-02-06T23:11:35.337Z,99571.88
2023-02-06T23:14:05.598Z,99582.50
2023-02-06T23:16:35.574Z,99576.59
2023-02-06T23:19:07.375Z,99572.31
2023-02-06T23:21:40.551Z,99576.16
2023-02-06T23:24:10.066Z,99574.97
2023-02-06T23:26:38.864Z,99572.78
2023-02-06T23:29:09.046Z,99573.22
2023-02-06T23:31:37.637Z,99573.94
2023-02-06T23:34:07.517Z,99572.47
2023-02-06T23:36:35.822Z,99579.72
2023-02-06T23:39:05.149Z,99573.50
2023-02-06T23:41:35.344Z,99571.41
2023-02-06T23:44:06.589Z,99567.91
2023-02-06T23:46:36.555Z,99567.44
2023-02-06T23:49:05.276Z,99566.69
2023-02-06T23:51:35.934Z,99570.41
2023-02-06T23:54:04.501Z,99568.91
2023-02-06T23:56:33.441Z,99574.97
2023-02-06T23:59:02.882Z,99564.59
